KLGA

Laguardia Airport

New York, New York, USA
KLGA 182107Z 1821/1924 36015KT P6SM SCT060 FM182300 35010KT P6SM FEW060 FM191000 03007KT P6SM SKC FM191500 06008KT P6SM SKC FM191900 13006KT P6SM FEW050 FM192100 17008KT P6SM FEW050
Issued Valid From Valid To
Jul-18 @ 21:07 UTC
(an hour ago)
Jul-18 @ 21:00 UTC
(an hour ago)
Jul-20 @ 00:00 UTC
(-1 days ago)
Jul-18 @ 21:00 to Jul-18 @ 23:00
KLGA 182107Z 1821/1924 36015KT P6SM SCT060
Wind Visibility Clouds
360° at 15 knots Greater than 6 miles
  • Scattered at 6,000' AGL
From Jul-18 @ 23:00 to Jul-19 @ 10:00
FM182300 35010KT P6SM FEW060
Wind Visibility Clouds
350° at 10 knots Greater than 6 miles
  • Few at 6,000' AGL
From Jul-19 @ 10:00 to Jul-19 @ 15:00
FM191000 03007KT P6SM SKC
Wind Visibility Clouds
30° at 7 knots Greater than 6 miles
  • Clear skies
From Jul-19 @ 15:00 to Jul-19 @ 19:00
FM191500 06008KT P6SM SKC
Wind Visibility Clouds
60° at 8 knots Greater than 6 miles
  • Clear skies
From Jul-19 @ 19:00 to Jul-19 @ 21:00
FM191900 13006KT P6SM FEW050
Wind Visibility Clouds
130° at 6 knots Greater than 6 miles
  • Few at 5,000' AGL
From Jul-19 @ 21:00 to Jul-20 @ 00:00
FM192100 17008KT P6SM FEW050
Wind Visibility Clouds
170° at 8 knots Greater than 6 miles
  • Few at 5,000' AGL
KLGA 182107Z 1821/1924 36015KT P6SM SCT060 FM182300 35010KT P6SM FEW060 FM191000 03007KT P6SM SKC FM191500 06008KT P6SM SKC FM191900 13006KT P6SM FEW050 FM192100 17008KT P6SM FEW050
Issued Jul-18 @ 21:07 UTC
(an hour ago)
Valid From Jul-18 @ 21:00 UTC
(an hour ago)
Valid To Jul-20 @ 00:00 UTC
(-1 days ago)
Jul-18 @ 21:00 - Jul-18 @ 23:00
Wind Visibility
360° at 15 knots Greater than 6 miles
Clouds
  • Scattered at 6,000' AGL
From Jul-18 @ 23:00 - Jul-19 @ 10:00
Wind Visibility
350° at 10 knots Greater than 6 miles
Clouds
  • Few at 6,000' AGL
From Jul-19 @ 10:00 - Jul-19 @ 15:00
Wind Visibility
30° at 7 knots Greater than 6 miles
Clouds
  • Clear skies
From Jul-19 @ 15:00 - Jul-19 @ 19:00
Wind Visibility
60° at 8 knots Greater than 6 miles
Clouds
  • Clear skies
From Jul-19 @ 19:00 - Jul-19 @ 21:00
Wind Visibility
130° at 6 knots Greater than 6 miles
Clouds
  • Few at 5,000' AGL
From Jul-19 @ 21:00 - Jul-20 @ 00:00
Wind Visibility
170° at 8 knots Greater than 6 miles
Clouds
  • Few at 5,000' AGL